createdAt,value
2018-07-20T00:00:36.824Z,0.00
2018-07-20T00:01:36.764Z,0.00
2018-07-20T00:02:36.764Z,0.00
2018-07-20T00:03:36.768Z,0.00
2018-07-20T00:04:36.760Z,0.00
2018-07-20T00:05:36.762Z,0.00
2018-07-20T00:06:36.757Z,0.00
2018-07-20T00:07:36.757Z,0.00
2018-07-20T00:08:36.753Z,0.00
2018-07-20T00:09:36.750Z,0.00
2018-07-20T00:10:36.752Z,0.00
2018-07-20T00:11:36.749Z,0.00
2018-07-20T00:12:36.747Z,0.00
2018-07-20T00:13:36.745Z,0.00
2018-07-20T00:14:36.744Z,0.00
2018-07-20T00:15:36.743Z,0.00
2018-07-20T00:16:36.769Z,0.00
2018-07-20T00:17:36.740Z,0.00
2018-07-20T00:18:36.739Z,0.00
2018-07-20T00:19:36.736Z,0.00
2018-07-20T00:20:36.734Z,0.00
2018-07-20T00:21:36.737Z,0.00
2018-07-20T00:22:36.734Z,0.00
2018-07-20T00:23:36.736Z,0.00
2018-07-20T00:24:36.727Z,0.00
2018-07-20T00:25:36.728Z,0.00
2018-07-20T00:26:36.726Z,0.00
2018-07-20T00:27:36.724Z,0.00
2018-07-20T00:28:36.724Z,0.00
2018-07-20T00:29:36.722Z,0.00
2018-07-20T00:30:36.722Z,0.00
2018-07-20T00:31:36.720Z,0.00
2018-07-20T00:32:36.715Z,0.00
2018-07-20T00:33:36.715Z,0.00
2018-07-20T00:34:36.720Z,0.00
2018-07-20T00:35:36.713Z,0.00
2018-07-20T00:36:36.715Z,0.00
2018-07-20T00:37:36.713Z,0.00
2018-07-20T00:38:36.711Z,0.00
2018-07-20T00:39:36.706Z,0.00
2018-07-20T00:40:36.710Z,0.00
2018-07-20T00:41:36.703Z,0.00
2018-07-20T00:42:36.700Z,0.00
2018-07-20T00:43:36.700Z,0.00
2018-07-20T00:44:36.697Z,0.00
2018-07-20T00:45:36.699Z,0.00
2018-07-20T00:46:36.695Z,0.00
2018-07-20T00:47:36.695Z,0.00
2018-07-20T00:48:36.688Z,0.00
2018-07-20T00:49:36.688Z,0.00
2018-07-20T00:50:36.687Z,0.00
2018-07-20T00:51:36.681Z,0.00
2018-07-20T00:52:36.685Z,0.00
2018-07-20T00:53:36.685Z,0.00
2018-07-20T00:54:36.680Z,0.00
2018-07-20T00:55:36.682Z,0.00
2018-07-20T00:56:36.681Z,0.00
2018-07-20T00:57:36.675Z,0.00
2018-07-20T00:58:36.674Z,0.00
2018-07-20T00:59:36.672Z,0.00
2018-07-20T01:00:36.671Z,0.00
2018-07-20T01:01:36.731Z,0.00
2018-07-20T01:02:36.725Z,0.00
2018-07-20T01:03:36.664Z,0.00
2018-07-20T01:04:36.663Z,0.00
2018-07-20T01:05:36.669Z,0.00
2018-07-20T01:06:36.660Z,0.00
2018-07-20T01:07:36.674Z,0.00
2018-07-20T01:08:36.655Z,0.00
2018-07-20T01:09:36.653Z,0.00
2018-07-20T01:10:36.651Z,0.00
2018-07-20T01:11:36.655Z,0.00
2018-07-20T01:12:36.650Z,0.00
2018-07-20T01:13:36.647Z,0.00
2018-07-20T01:14:36.644Z,0.00
2018-07-20T01:15:36.643Z,0.00
2018-07-20T01:16:36.651Z,0.00
2018-07-20T01:17:36.641Z,0.00
2018-07-20T01:18:36.645Z,0.00
2018-07-20T01:19:36.634Z,0.00
2018-07-20T01:20:36.634Z,0.00
2018-07-20T01:21:36.632Z,0.00
2018-07-20T01:22:36.630Z,0.00
2018-07-20T01:23:36.631Z,0.00
2018-07-20T01:24:36.627Z,0.00
2018-07-20T01:25:36.626Z,0.00
2018-07-20T01:26:36.626Z,0.00
2018-07-20T01:27:36.622Z,0.00
2018-07-20T01:28:36.616Z,0.00
2018-07-20T01:29:36.617Z,0.00
2018-07-20T01:30:36.611Z,0.00
2018-07-20T02:04:59.447Z,0.00
2018-07-20T02:05:59.425Z,0.00
2018-07-20T02:07:52.353Z,0.00
2018-07-20T02:08:52.328Z,0.00
2018-07-20T02:10:45.234Z,0.00
2018-07-20T02:11:45.209Z,0.00
2018-07-20T02:13:38.135Z,0.00
2018-07-20T02:14:38.126Z,0.00
2018-07-20T02:16:31.069Z,0.00
2018-07-20T02:17:31.051Z,0.00
2018-07-20T02:19:23.953Z,0.00
2018-07-20T02:20:23.936Z,0.00
2018-07-20T02:22:16.899Z,0.00
2018-07-20T02:23:16.870Z,0.00
2018-07-20T02:25:09.841Z,0.00
2018-07-20T02:26:09.819Z,0.00
2018-07-20T02:28:02.756Z,0.00
2018-07-20T02:29:02.737Z,0.00
2018-07-20T02:30:55.654Z,0.00
2018-07-20T02:31:55.643Z,0.00
2018-07-20T02:33:48.577Z,0.00
2018-07-20T02:34:48.568Z,0.00
2018-07-20T02:36:41.519Z,0.00
2018-07-20T02:37:41.499Z,0.00
2018-07-20T02:39:34.452Z,0.00
2018-07-20T02:40:34.443Z,0.00
2018-07-20T02:42:27.418Z,0.00
2018-07-20T02:43:27.397Z,0.00
2018-07-20T02:45:20.361Z,0.00
2018-07-20T02:46:20.359Z,0.00
2018-07-20T02:48:13.254Z,0.00
2018-07-20T02:49:13.235Z,0.00
2018-07-20T02:51:06.195Z,0.00
2018-07-20T02:52:06.162Z,0.00
2018-07-20T02:53:59.120Z,0.00
2018-07-20T02:54:59.108Z,0.00
2018-07-20T02:56:52.129Z,0.00
2018-07-20T02:57:52.112Z,0.00
2018-07-20T02:59:45.065Z,0.00
2018-07-20T03:00:45.053Z,0.00
2018-07-20T03:02:37.971Z,0.00
2018-07-20T03:03:37.942Z,4.00
2018-07-20T03:05:30.835Z,4.00
2018-07-20T03:06:30.828Z,0.00
2018-07-20T03:08:23.765Z,4.00
2018-07-20T03:09:23.746Z,4.00
2018-07-20T03:11:16.694Z,4.00
2018-07-20T03:12:16.669Z,4.00
2018-07-20T03:14:09.643Z,8.00
2018-07-20T03:15:09.622Z,8.00
2018-07-20T03:17:02.599Z,16.00
2018-07-20T03:18:02.573Z,16.00
2018-07-20T03:19:55.534Z,20.00
2018-07-20T03:20:55.536Z,24.00
2018-07-20T03:22:48.552Z,32.00
2018-07-20T03:23:48.528Z,36.00
2018-07-20T03:25:41.518Z,48.00
2018-07-20T03:26:41.502Z,56.00
2018-07-20T03:28:34.474Z,68.00
2018-07-20T03:29:34.452Z,76.00
2018-07-20T03:31:27.455Z,100.00
2018-07-20T03:32:27.443Z,112.00
2018-07-20T03:34:20.369Z,140.00
2018-07-20T03:35:20.350Z,156.00
2018-07-20T03:37:13.265Z,188.00
2018-07-20T03:38:13.245Z,208.00
2018-07-20T03:40:06.190Z,248.00
2018-07-20T03:41:06.192Z,272.00
2018-07-20T03:42:59.161Z,320.00
2018-07-20T03:43:59.135Z,348.00
2018-07-20T03:45:52.123Z,404.00
2018-07-20T03:46:52.112Z,440.00
2018-07-20T03:48:45.162Z,504.00
2018-07-20T03:49:45.141Z,544.00
2018-07-20T03:51:38.116Z,620.00
2018-07-20T03:52:38.103Z,664.00
2018-07-20T03:54:31.070Z,756.00
2018-07-20T03:55:31.050Z,804.00
2018-07-20T03:57:23.987Z,912.00
2018-07-20T03:58:23.974Z,980.00
2018-07-20T04:00:16.916Z,1108.00
2018-07-20T04:01:16.907Z,1188.00
2018-07-20T04:03:09.862Z,1340.00
2018-07-20T04:04:09.844Z,1420.00
2018-07-20T04:06:02.763Z,1592.00
2018-07-20T04:07:02.741Z,1688.00
2018-07-20T04:08:55.740Z,1884.00
2018-07-20T04:09:55.717Z,1992.00
2018-07-20T04:11:48.662Z,2212.00
2018-07-20T04:12:48.650Z,2332.00
2018-07-20T04:14:41.630Z,2560.00
2018-07-20T04:15:41.609Z,2684.00
2018-07-20T04:17:34.531Z,2900.00
2018-07-20T04:18:34.509Z,3000.00
2018-07-20T04:20:27.485Z,3176.00
2018-07-20T04:21:27.474Z,3264.00
2018-07-20T04:23:20.409Z,3440.00
2018-07-20T04:24:20.382Z,3524.00
2018-07-20T04:26:13.276Z,3664.00
2018-07-20T04:27:13.256Z,3736.00
2018-07-20T04:29:06.171Z,3888.00
2018-07-20T04:30:06.157Z,3968.00
2018-07-20T04:31:59.185Z,4040.00
2018-07-20T04:32:59.171Z,4056.00
2018-07-20T04:34:52.148Z,4040.00
2018-07-20T04:35:52.072Z,4224.00
2018-07-20T04:37:45.000Z,4516.00
2018-07-20T04:38:44.970Z,4592.00
2018-07-20T04:40:37.906Z,4868.00
2018-07-20T04:41:37.888Z,5048.00
2018-07-20T04:43:30.845Z,5460.00
2018-07-20T04:44:30.826Z,5736.00
2018-07-20T04:46:23.725Z,6404.00
2018-07-20T04:47:23.716Z,6860.00
2018-07-20T04:49:16.695Z,7780.00
2018-07-20T04:50:16.677Z,8232.00
2018-07-20T04:52:09.600Z,8880.00
2018-07-20T04:53:09.584Z,9012.00
2018-07-20T04:55:02.601Z,9064.00
2018-07-20T04:56:02.583Z,9068.00
2018-07-20T04:57:55.508Z,9072.00
2018-07-20T04:58:55.554Z,9052.00
2018-07-20T05:00:48.428Z,8920.00
2018-07-20T05:01:48.416Z,8760.00
2018-07-20T05:03:41.384Z,8408.00
2018-07-20T05:04:41.367Z,8232.00
2018-07-20T05:06:34.304Z,7928.00
2018-07-20T05:07:34.296Z,7904.00
2018-07-20T05:09:27.260Z,7964.00
2018-07-20T05:10:27.241Z,8036.00
2018-07-20T05:12:20.151Z,8132.00
2018-07-20T05:13:20.143Z,8240.00
2018-07-20T05:15:13.113Z,8372.00
2018-07-20T05:16:13.101Z,8396.00
2018-07-20T05:18:06.113Z,8208.00
2018-07-20T05:19:06.090Z,8428.00
2018-07-20T05:20:59.116Z,8780.00
2018-07-20T05:21:59.094Z,8896.00
2018-07-20T05:22:59.097Z,8980.00
2018-07-20T05:23:59.098Z,9016.00
2018-07-20T05:24:59.109Z,9016.00
2018-07-20T05:25:59.096Z,8900.00
2018-07-20T05:26:59.098Z,8972.00
2018-07-20T05:27:59.094Z,8948.00
2018-07-20T05:28:59.095Z,8488.00
2018-07-20T05:29:59.096Z,8444.00
2018-07-20T05:30:59.199Z,8872.00
2018-07-20T05:31:59.101Z,9244.00
2018-07-20T05:32:59.100Z,9724.00
2018-07-20T05:33:59.102Z,9708.00
2018-07-20T05:34:59.338Z,9284.00
2018-07-20T05:35:59.102Z,9696.00
2018-07-20T05:36:59.107Z,9688.00
2018-07-20T05:37:59.108Z,9564.00
2018-07-20T05:38:59.105Z,8764.00
2018-07-20T05:39:59.108Z,8724.00
2018-07-20T05:40:59.108Z,8816.00
2018-07-20T05:41:59.108Z,9800.00
2018-07-20T05:42:59.110Z,9728.00
2018-07-20T05:43:59.140Z,9496.00
2018-07-20T05:44:59.115Z,9272.00
2018-07-20T05:45:59.113Z,9096.00
2018-07-20T05:46:59.117Z,8800.00
2018-07-20T05:47:59.124Z,8804.00
2018-07-20T05:48:59.124Z,8616.00
2018-07-20T05:49:59.119Z,8304.00
2018-07-20T05:50:59.146Z,8024.00
2018-07-20T05:51:59.125Z,7188.00
2018-07-20T05:52:59.119Z,7832.00
2018-07-20T05:53:59.123Z,8292.00
2018-07-20T05:54:59.124Z,7684.00
2018-07-20T05:55:59.125Z,8688.00
2018-07-20T05:56:59.127Z,9556.00
2018-07-20T05:57:59.131Z,8488.00
2018-07-20T05:58:59.127Z,9572.00
2018-07-20T05:59:59.129Z,9752.00
2018-07-20T06:00:59.129Z,10588.00
2018-07-20T06:01:59.132Z,10636.00
2018-07-20T06:02:59.136Z,10688.00
2018-07-20T06:03:59.141Z,10740.00
2018-07-20T06:04:59.137Z,10796.00
2018-07-20T06:05:59.136Z,10880.00
2018-07-20T06:06:59.138Z,10960.00
2018-07-20T06:07:59.138Z,11052.00
2018-07-20T06:08:59.140Z,11140.00
2018-07-20T06:09:59.151Z,11224.00
2018-07-20T06:10:59.144Z,11308.00
2018-07-20T06:11:59.141Z,11372.00
2018-07-20T06:12:59.147Z,11428.00
2018-07-20T06:13:59.151Z,11472.00
2018-07-20T06:14:59.154Z,11516.00
2018-07-20T06:15:59.151Z,11552.00
2018-07-20T06:16:59.156Z,11592.00
2018-07-20T06:17:59.159Z,11668.00
2018-07-20T06:18:59.196Z,11724.00
2018-07-20T06:19:59.160Z,11800.00
2018-07-20T06:20:59.167Z,11880.00
2018-07-20T06:21:59.163Z,11976.00
2018-07-20T06:22:59.196Z,12052.00
2018-07-20T06:23:59.197Z,12124.00
2018-07-20T06:24:59.170Z,12204.00
2018-07-20T06:25:59.181Z,12296.00
2018-07-20T06:26:59.176Z,12392.00
2018-07-20T06:27:59.179Z,12484.00
2018-07-20T06:28:59.181Z,12552.00
2018-07-20T06:29:59.189Z,12628.00
2018-07-20T06:30:59.190Z,12680.00
2018-07-20T06:31:59.191Z,12720.00
2018-07-20T06:32:59.194Z,12748.00
2018-07-20T06:33:59.196Z,12784.00
2018-07-20T06:34:59.200Z,12820.00
2018-07-20T06:35:59.201Z,12888.00
2018-07-20T06:36:59.204Z,12968.00
2018-07-20T06:37:59.208Z,13056.00
2018-07-20T06:38:59.217Z,13128.00
2018-07-20T06:39:59.214Z,13228.00
2018-07-20T06:40:59.222Z,13300.00
2018-07-20T06:41:59.211Z,13360.00
2018-07-20T06:42:59.227Z,13396.00
2018-07-20T06:43:59.222Z,13424.00
2018-07-20T06:44:59.232Z,13452.00
2018-07-20T06:45:59.237Z,13480.00
2018-07-20T06:46:59.241Z,13520.00
2018-07-20T06:47:59.254Z,13560.00
2018-07-20T06:48:59.246Z,13596.00
2018-07-20T06:49:59.251Z,13628.00
2018-07-20T06:50:59.262Z,13668.00
2018-07-20T06:51:59.255Z,13716.00
2018-07-20T06:52:59.259Z,13768.00
2018-07-20T06:53:59.264Z,13836.00
2018-07-20T06:54:59.268Z,13892.00
2018-07-20T06:55:59.278Z,13944.00
2018-07-20T06:56:59.273Z,13988.00
2018-07-20T06:57:59.277Z,14044.00
2018-07-20T06:58:59.284Z,14116.00
2018-07-20T06:59:59.288Z,14192.00
2018-07-20T07:00:59.291Z,14284.00
2018-07-20T07:01:59.297Z,14380.00
2018-07-20T07:02:59.301Z,14472.00
2018-07-20T07:03:59.310Z,14572.00
2018-07-20T07:04:59.310Z,14640.00
2018-07-20T07:05:59.316Z,14708.00
2018-07-20T07:06:59.314Z,14776.00
2018-07-20T07:07:59.325Z,14884.00
2018-07-20T07:08:59.331Z,15120.00
2018-07-20T07:09:59.329Z,15632.00
2018-07-20T07:10:59.337Z,16364.00
2018-07-20T07:11:59.338Z,17344.00
2018-07-20T07:12:59.352Z,25792.00
2018-07-20T07:13:59.350Z,44576.00
2018-07-20T07:14:59.434Z,55776.00
2018-07-20T07:15:59.361Z,52864.00
2018-07-20T07:16:59.364Z,49984.00
2018-07-20T07:17:59.370Z,50112.00
2018-07-20T07:18:59.379Z,51328.00
2018-07-20T07:19:59.384Z,52896.00
2018-07-20T07:20:59.392Z,52576.00
2018-07-20T07:21:59.402Z,54496.00
2018-07-20T07:22:59.411Z,55168.00
2018-07-20T07:23:59.418Z,51904.00
2018-07-20T07:24:59.430Z,52384.00
2018-07-20T07:25:59.523Z,56096.00
2018-07-20T07:26:59.448Z,56256.00
2018-07-20T07:27:59.455Z,56480.00
2018-07-20T07:28:59.471Z,55136.00
2018-07-20T07:29:59.478Z,57696.00
2018-07-20T07:30:59.495Z,57824.00
2018-07-20T07:31:59.499Z,54112.00
2018-07-20T07:32:59.516Z,55392.00
2018-07-20T07:33:59.525Z,57280.00
2018-07-20T07:34:59.543Z,62112.00
2018-07-20T07:35:59.556Z,65216.00
2018-07-20T07:36:59.566Z,60448.00
2018-07-20T07:37:59.580Z,60288.00
2018-07-20T07:38:59.593Z,70560.00
2018-07-20T07:39:59.608Z,72544.00
2018-07-20T07:40:59.619Z,68448.00
2018-07-20T07:41:59.637Z,69184.00
2018-07-20T07:42:59.650Z,66656.00
2018-07-20T07:43:59.665Z,64224.00
2018-07-20T07:44:59.680Z,61472.00
2018-07-20T07:45:59.691Z,61568.00
2018-07-20T07:46:59.708Z,65440.00
2018-07-20T07:47:59.721Z,67680.00
2018-07-20T07:48:59.741Z,65952.00
2018-07-20T07:49:59.755Z,70016.00
2018-07-20T07:50:59.774Z,70720.00
2018-07-20T07:51:59.786Z,70976.00
2018-07-20T07:52:59.799Z,66304.00
2018-07-20T07:53:59.814Z,64064.00
2018-07-20T07:54:59.831Z,66272.00
2018-07-20T07:55:59.848Z,72384.00
2018-07-20T07:56:59.863Z,71136.00
2018-07-20T07:57:59.877Z,72128.00
2018-07-20T07:58:59.893Z,71968.00
2018-07-20T07:59:59.909Z,72352.00
2018-07-20T08:00:59.928Z,76096.00
2018-07-20T08:01:59.942Z,81344.00
2018-07-20T08:02:59.954Z,78976.00
2018-07-20T08:03:59.982Z,71488.00
2018-07-20T08:04:59.990Z,74080.00
2018-07-20T08:06:00.019Z,75520.00
2018-07-20T08:07:00.027Z,76416.00
2018-07-20T08:08:00.041Z,80544.00
2018-07-20T08:09:00.056Z,81184.00
2018-07-20T08:10:00.261Z,79904.00
2018-07-20T08:11:00.089Z,77696.00
2018-07-20T08:12:00.109Z,76128.00
2018-07-20T08:13:00.122Z,76896.00
2018-07-20T08:14:00.142Z,74432.00
2018-07-20T08:15:00.159Z,79168.00
2018-07-20T08:16:00.173Z,82208.00
2018-07-20T08:17:00.194Z,81952.00
2018-07-20T08:18:00.209Z,78752.00
2018-07-20T08:19:00.228Z,60256.00
2018-07-20T08:20:00.244Z,57024.00
2018-07-20T08:21:00.266Z,47904.00
2018-07-20T08:22:00.277Z,63296.00
2018-07-20T08:23:00.353Z,75936.00
2018-07-20T08:24:00.317Z,82240.00
2018-07-20T08:25:00.331Z,83488.00
2018-07-20T08:26:00.349Z,86720.00
2018-07-20T08:27:00.364Z,96608.00
2018-07-20T08:28:00.382Z,102848.00
2018-07-20T08:29:00.399Z,101856.00
2018-07-20T08:30:00.448Z,96576.00
2018-07-20T08:31:00.439Z,84704.00
2018-07-20T08:32:00.456Z,66944.00
2018-07-20T08:33:00.476Z,44160.00
2018-07-20T08:34:00.494Z,44256.00
2018-07-20T08:35:00.510Z,35488.00
2018-07-20T08:36:00.527Z,54048.00
2018-07-20T08:37:00.543Z,51104.00
2018-07-20T08:38:00.596Z,39648.00
2018-07-20T08:39:00.585Z,40384.00
2018-07-20T08:40:00.603Z,50688.00
2018-07-20T08:41:00.607Z,49344.00
2018-07-20T08:42:00.635Z,55584.00
2018-07-20T08:43:00.646Z,47712.00
2018-07-20T08:44:00.665Z,47104.00
2018-07-20T08:45:00.679Z,52064.00
2018-07-20T08:46:00.694Z,60192.00
2018-07-20T08:47:00.708Z,60256.00
2018-07-20T08:48:00.722Z,74528.00
2018-07-20T08:49:00.741Z,57664.00
2018-07-20T08:50:00.753Z,65792.00
2018-07-20T08:51:00.773Z,53216.00
2018-07-20T08:52:00.786Z,43968.00
2018-07-20T08:53:00.800Z,45120.00
2018-07-20T08:54:00.821Z,42624.00
2018-07-20T08:55:00.832Z,39904.00
2018-07-20T08:56:00.851Z,37152.00
2018-07-20T08:57:00.862Z,34816.00
2018-07-20T08:58:00.872Z,33664.00
2018-07-20T08:59:00.911Z,34528.00
2018-07-20T09:00:00.968Z,34624.00
2018-07-20T09:01:00.918Z,45760.00
2018-07-20T09:02:00.932Z,33280.00
2018-07-20T09:03:00.948Z,36576.00
2018-07-20T09:04:00.960Z,34400.00
2018-07-20T09:05:00.972Z,82528.00
2018-07-20T09:06:00.987Z,37088.00
2018-07-20T09:07:01.000Z,41024.00
2018-07-20T09:08:01.014Z,79008.00
2018-07-20T09:09:01.027Z,83104.00
2018-07-20T09:10:01.040Z,71264.00
2018-07-20T09:11:01.058Z,74912.00
2018-07-20T09:12:22.087Z,77344.00
2018-07-20T09:13:01.079Z,76448.00
2018-07-20T09:14:01.108Z,76160.00
2018-07-20T09:15:01.106Z,82176.00
2018-07-20T09:16:01.126Z,70592.00
2018-07-20T09:17:01.138Z,75264.00
2018-07-20T09:18:01.159Z,51008.00
2018-07-20T09:19:01.174Z,84864.00
2018-07-20T09:20:01.187Z,85632.00
2018-07-20T09:21:01.229Z,61408.00
2018-07-20T09:22:01.220Z,80672.00
2018-07-20T09:23:01.243Z,81920.00
2018-07-20T09:24:01.267Z,79776.00
2018-07-20T09:25:01.274Z,73472.00
2018-07-20T09:26:01.291Z,45728.00
2018-07-20T09:27:01.311Z,31872.00
2018-07-20T09:28:01.328Z,30496.00
2018-07-20T09:29:01.347Z,32352.00
2018-07-20T09:30:01.364Z,40480.00
2018-07-20T09:31:01.385Z,53248.00
2018-07-20T09:32:01.395Z,39104.00
2018-07-20T09:33:01.406Z,41952.00
2018-07-20T09:34:01.486Z,46304.00
2018-07-20T09:35:01.448Z,66176.00
2018-07-20T09:36:01.465Z,64544.00
2018-07-20T09:37:01.480Z,84992.00
2018-07-20T09:38:01.493Z,82912.00
2018-07-20T09:39:01.511Z,82944.00
2018-07-20T09:40:01.530Z,63520.00
2018-07-20T09:41:01.546Z,48640.00
2018-07-20T09:42:01.563Z,46880.00
2018-07-20T09:43:01.580Z,42432.00
2018-07-20T09:44:01.593Z,39264.00
2018-07-20T09:45:01.615Z,36256.00
2018-07-20T09:46:01.633Z,32672.00
2018-07-20T09:47:01.646Z,31968.00
2018-07-20T09:48:01.656Z,36256.00
2018-07-20T09:49:01.733Z,30112.00
2018-07-20T09:50:01.690Z,32224.00
2018-07-20T09:51:01.709Z,32768.00
2018-07-20T09:52:01.727Z,31552.00
2018-07-20T09:53:01.732Z,35168.00
2018-07-20T09:54:01.745Z,33728.00
2018-07-20T09:55:01.759Z,34432.00
2018-07-20T09:56:01.777Z,34528.00
2018-07-20T09:57:01.786Z,35264.00
2018-07-20T09:58:01.805Z,39456.00
2018-07-20T09:59:01.827Z,42464.00
2018-07-20T10:00:01.824Z,46400.00
2018-07-20T10:01:01.843Z,89088.00
2018-07-20T10:02:01.859Z,81792.00
2018-07-20T10:03:01.861Z,85248.00
2018-07-20T10:04:01.875Z,84992.00
2018-07-20T10:05:01.939Z,87872.00
2018-07-20T10:06:01.905Z,84256.00
2018-07-20T10:07:01.917Z,70816.00
2018-07-20T10:08:01.932Z,59296.00
2018-07-20T10:09:01.948Z,69120.00
2018-07-20T10:10:01.964Z,80960.00
2018-07-20T10:11:01.982Z,77120.00
2018-07-20T10:12:02.000Z,76288.00
2018-07-20T10:13:02.015Z,74304.00
2018-07-20T10:14:02.029Z,72672.00
2018-07-20T10:15:02.048Z,72640.00
2018-07-20T10:16:02.985Z,77088.00
2018-07-20T10:17:02.091Z,73024.00
2018-07-20T10:18:02.098Z,77472.00
2018-07-20T10:19:02.121Z,78624.00
2018-07-20T10:20:02.133Z,73984.00
2018-07-20T10:21:02.150Z,80576.00
2018-07-20T10:22:02.173Z,83552.00
2018-07-20T10:23:02.206Z,83904.00
2018-07-20T10:24:02.212Z,77024.00
2018-07-20T10:25:02.231Z,71008.00
2018-07-20T10:26:02.254Z,74368.00
2018-07-20T10:27:02.280Z,79520.00
2018-07-20T10:28:02.293Z,81760.00
2018-07-20T10:29:02.307Z,84320.00
2018-07-20T10:30:02.325Z,77088.00
2018-07-20T10:31:02.349Z,73248.00
2018-07-20T10:32:02.368Z,74240.00
2018-07-20T10:33:02.391Z,80320.00
2018-07-20T10:34:02.405Z,81824.00
2018-07-20T10:35:02.437Z,79584.00
2018-07-20T10:36:02.443Z,83424.00
2018-07-20T10:37:02.467Z,83200.00
2018-07-20T10:38:02.484Z,77600.00
2018-07-20T10:39:02.505Z,77856.00
2018-07-20T10:40:02.528Z,83008.00
2018-07-20T10:41:02.550Z,69248.00
2018-07-20T10:42:02.565Z,75232.00
2018-07-20T10:43:02.608Z,78112.00
2018-07-20T10:44:02.602Z,75040.00
2018-07-20T10:45:02.655Z,73632.00
2018-07-20T10:46:02.645Z,77440.00
2018-07-20T10:47:02.697Z,77088.00
2018-07-20T10:48:02.683Z,76000.00
2018-07-20T10:49:02.706Z,78144.00
2018-07-20T10:50:02.724Z,78752.00
2018-07-20T10:51:02.746Z,77536.00
2018-07-20T10:52:02.769Z,79968.00
2018-07-20T10:53:02.797Z,81024.00
2018-07-20T10:54:02.807Z,81376.00
2018-07-20T10:55:02.824Z,79808.00
2018-07-20T10:56:02.843Z,77824.00
2018-07-20T10:57:02.866Z,81728.00
2018-07-20T10:58:02.888Z,84160.00
2018-07-20T10:59:02.902Z,79008.00
2018-07-20T11:00:02.925Z,75232.00
2018-07-20T11:01:02.944Z,79328.00
2018-07-20T11:02:02.964Z,79200.00
2018-07-20T11:03:02.988Z,81472.00
2018-07-20T11:04:03.004Z,81536.00
2018-07-20T11:05:03.023Z,82528.00
2018-07-20T11:06:03.042Z,86464.00
2018-07-20T11:07:03.066Z,89184.00
2018-07-20T11:08:03.156Z,85568.00
2018-07-20T11:09:03.112Z,83520.00
2018-07-20T11:10:03.123Z,84224.00
2018-07-20T11:11:03.142Z,79680.00
2018-07-20T11:12:03.160Z,77632.00
2018-07-20T11:13:03.182Z,85056.00
2018-07-20T11:14:03.199Z,86400.00
2018-07-20T11:15:03.228Z,83264.00
2018-07-20T11:16:03.239Z,77696.00
2018-07-20T11:17:03.260Z,75456.00
2018-07-20T11:18:03.280Z,75872.00
2018-07-20T11:19:03.298Z,79680.00
2018-07-20T11:20:03.321Z,84640.00
2018-07-20T11:21:03.343Z,82976.00
2018-07-20T11:22:03.360Z,80448.00
2018-07-20T11:23:03.380Z,80768.00
2018-07-20T11:24:03.403Z,80896.00
2018-07-20T11:25:03.418Z,78496.00
2018-07-20T11:26:03.437Z,81632.00
2018-07-20T11:27:03.457Z,85888.00
2018-07-20T11:28:03.497Z,83168.00
2018-07-20T11:29:03.497Z,81696.00
2018-07-20T11:30:03.516Z,82432.00
2018-07-20T11:31:03.537Z,80160.00
2018-07-20T11:32:03.555Z,80640.00
2018-07-20T11:33:03.576Z,80640.00
2018-07-20T11:34:03.596Z,81024.00
2018-07-20T11:35:03.622Z,83680.00
2018-07-20T11:36:03.633Z,83008.00
2018-07-20T11:37:03.652Z,15804.00
2018-07-20T11:38:03.676Z,19080.00
2018-07-20T11:39:03.691Z,26528.00
2018-07-20T11:40:03.711Z,41760.00
2018-07-20T11:41:03.726Z,76224.00
2018-07-20T11:42:03.751Z,74976.00
2018-07-20T11:43:03.765Z,78752.00
2018-07-20T11:44:03.781Z,79552.00
2018-07-20T11:45:03.799Z,78080.00
2018-07-20T11:46:03.818Z,79904.00
2018-07-20T11:47:03.835Z,80256.00
2018-07-20T11:48:03.853Z,80672.00
2018-07-20T11:49:03.872Z,83200.00
2018-07-20T11:50:03.893Z,79552.00
2018-07-20T11:51:03.909Z,76288.00
2018-07-20T11:52:03.923Z,80832.00
2018-07-20T11:53:03.945Z,79840.00
2018-07-20T11:54:03.961Z,79424.00
2018-07-20T11:55:04.001Z,81664.00
2018-07-20T11:56:04.073Z,81984.00
2018-07-20T11:57:04.015Z,82912.00
2018-07-20T11:58:04.032Z,80512.00
2018-07-20T11:59:04.062Z,74400.00
2018-07-20T12:00:04.072Z,75264.00
2018-07-20T12:01:04.091Z,76352.00
2018-07-20T12:02:04.116Z,74496.00
2018-07-20T12:03:04.130Z,75776.00
2018-07-20T12:04:04.147Z,26240.00
2018-07-20T12:05:04.166Z,74240.00
2018-07-20T12:06:04.183Z,79616.00
2018-07-20T12:07:04.209Z,81696.00
2018-07-20T12:08:04.236Z,78528.00
2018-07-20T12:09:04.243Z,77088.00
2018-07-20T12:10:04.280Z,77920.00
2018-07-20T12:11:04.278Z,80832.00
2018-07-20T12:12:04.298Z,79680.00
2018-07-20T12:13:04.317Z,79136.00
2018-07-20T12:14:04.340Z,79680.00
2018-07-20T12:15:04.357Z,74432.00
2018-07-20T12:16:04.374Z,73248.00
2018-07-20T12:17:04.397Z,82848.00
2018-07-20T12:18:04.413Z,85696.00
2018-07-20T12:19:04.430Z,81664.00
2018-07-20T12:20:04.452Z,81568.00
2018-07-20T12:21:04.477Z,85440.00
2018-07-20T12:22:04.496Z,86272.00
2018-07-20T12:23:04.502Z,82432.00
2018-07-20T12:24:04.529Z,79456.00
2018-07-20T12:25:04.557Z,79648.00
2018-07-20T12:26:04.557Z,80992.00
2018-07-20T12:27:04.585Z,79520.00
2018-07-20T12:28:04.611Z,77472.00
2018-07-20T12:29:04.630Z,78016.00
2018-07-20T12:30:04.649Z,78752.00
2018-07-20T12:31:04.666Z,80608.00
2018-07-20T12:32:04.689Z,80064.00
2018-07-20T12:33:04.707Z,77632.00
2018-07-20T12:34:04.768Z,78752.00
2018-07-20T12:35:04.746Z,84960.00
2018-07-20T12:36:04.768Z,88928.00
2018-07-20T12:37:04.784Z,81280.00
2018-07-20T12:38:04.804Z,77280.00
2018-07-20T12:39:04.823Z,80608.00
2018-07-20T12:40:04.846Z,53120.00
2018-07-20T12:41:04.862Z,17920.00
2018-07-20T12:42:04.893Z,14924.00
2018-07-20T12:43:04.896Z,15136.00
2018-07-20T12:44:04.918Z,15824.00
2018-07-20T12:45:04.931Z,16708.00
2018-07-20T12:46:04.948Z,18232.00
2018-07-20T12:47:04.964Z,19232.00
2018-07-20T12:48:04.977Z,20256.00
2018-07-20T12:49:04.994Z,21440.00
2018-07-20T12:50:05.027Z,22624.00
2018-07-20T12:51:05.022Z,23840.00
2018-07-20T12:52:05.040Z,25568.00
2018-07-20T12:53:05.049Z,26592.00
2018-07-20T12:54:05.063Z,27360.00
2018-07-20T12:55:05.081Z,27808.00
2018-07-20T12:56:05.089Z,29024.00
2018-07-20T12:57:05.101Z,29792.00
2018-07-20T12:58:05.152Z,28672.00
2018-07-20T12:59:05.153Z,28640.00
2018-07-20T13:00:05.136Z,28576.00
2018-07-20T13:01:05.149Z,28768.00
2018-07-20T13:02:05.168Z,28928.00
2018-07-20T13:03:05.176Z,29760.00
2018-07-20T13:04:05.183Z,29984.00
2018-07-20T13:05:05.193Z,29504.00
2018-07-20T13:06:05.208Z,28928.00
2018-07-20T13:07:05.217Z,28288.00
2018-07-20T13:08:05.230Z,25824.00
2018-07-20T13:09:05.241Z,24128.00
2018-07-20T13:10:05.253Z,23296.00
2018-07-20T13:11:05.258Z,22560.00
2018-07-20T13:12:05.405Z,21184.00
2018-07-20T13:13:05.338Z,21408.00
2018-07-20T13:14:05.407Z,22400.00
2018-07-20T13:15:05.306Z,23552.00
2018-07-20T13:16:05.309Z,23872.00
2018-07-20T13:17:05.327Z,23968.00
2018-07-20T13:18:05.406Z,22816.00
2018-07-20T13:19:05.344Z,22368.00
2018-07-20T13:20:05.362Z,21248.00
2018-07-20T13:21:05.363Z,19872.00
2018-07-20T13:22:05.374Z,19808.00
2018-07-20T13:23:05.387Z,21248.00
2018-07-20T13:24:05.391Z,22816.00
2018-07-20T13:25:05.401Z,23008.00
2018-07-20T13:26:05.414Z,23008.00
2018-07-20T13:27:05.423Z,22880.00
2018-07-20T13:28:05.434Z,23232.00
2018-07-20T13:29:05.446Z,24672.00
2018-07-20T13:30:05.454Z,25248.00
2018-07-20T13:31:05.461Z,24416.00
2018-07-20T13:32:05.472Z,24544.00
2018-07-20T13:33:05.481Z,24992.00
2018-07-20T13:34:05.487Z,24320.00
2018-07-20T13:35:05.501Z,23712.00
2018-07-20T13:36:05.516Z,23232.00
2018-07-20T13:37:05.519Z,22336.00
2018-07-20T13:38:05.522Z,21440.00
2018-07-20T13:39:05.540Z,20512.00